createdAt,value
2023-05-08T00:01:51.970Z,99006.41
2023-05-08T00:04:20.375Z,99013.59
2023-05-08T00:06:46.990Z,99013.59
2023-05-08T00:09:13.410Z,99016.53
2023-05-08T00:11:39.726Z,99008.53
2023-05-08T00:14:06.187Z,99008.53
2023-05-08T00:16:32.674Z,99007.16
2023-05-08T00:18:59.749Z,99007.97
2023-05-08T00:21:26.131Z,99007.97
2023-05-08T00:23:52.464Z,99014.34
2023-05-08T00:26:18.935Z,99010.66
2023-05-08T00:28:45.264Z,99011.66
2023-05-08T00:31:11.933Z,99010.88
2023-05-08T00:33:38.260Z,99011.94
2023-05-08T00:36:04.802Z,99007.41
2023-05-08T00:38:31.546Z,99007.66
2023-05-08T00:40:58.190Z,99011.38
2023-05-08T00:43:27.945Z,98999.88
2023-05-08T00:45:54.788Z,98997.72
2023-05-08T00:48:21.280Z,99005.72
2023-05-08T00:50:47.606Z,99001.44
2023-05-08T00:53:13.927Z,99000.63
2023-05-08T00:55:40.247Z,99000.88
2023-05-08T00:58:06.553Z,98999.00
2023-05-08T01:00:32.873Z,98991.28
2023-05-08T01:03:00.127Z,98996.59
2023-05-08T01:05:29.328Z,98997.41
2023-05-08T01:07:55.650Z,98996.59
2023-05-08T01:10:21.964Z,98997.66
2023-05-08T01:12:54.326Z,98998.69
2023-05-08T01:15:22.709Z,98990.94
2023-05-08T01:18:07.830Z,98984.81
2023-05-08T01:20:37.091Z,98986.69
2023-05-08T01:23:09.358Z,98986.69
2023-05-08T01:25:38.912Z,98987.47
2023-05-08T01:28:14.420Z,98986.69
2023-05-08T01:30:59.638Z,98996.53
2023-05-08T01:33:44.691Z,98987.72
2023-05-08T01:36:17.288Z,98987.72
2023-05-08T01:38:48.160Z,98986.94
2023-05-08T01:41:16.295Z,98987.94
2023-05-08T01:43:50.539Z,98989.81
2023-05-08T01:46:18.586Z,98989.00
2023-05-08T01:48:49.937Z,98987.41
2023-05-08T01:51:20.699Z,98991.13
2023-05-08T01:53:51.576Z,98994.00
2023-05-08T01:56:19.056Z,98998.31
2023-05-08T01:58:45.406Z,98994.84
2023-05-08T02:01:12.672Z,98990.78
2023-05-08T02:03:39.781Z,98990.53
2023-05-08T02:06:07.062Z,98993.19
2023-05-08T02:08:33.396Z,98984.19
2023-05-08T02:10:59.817Z,98985.22
2023-05-08T02:13:26.186Z,98991.94
2023-05-08T02:15:53.286Z,98986.59
2023-05-08T02:18:20.653Z,98993.53
2023-05-08T02:20:47.755Z,98988.19
2023-05-08T02:23:14.063Z,99001.25
2023-05-08T02:25:40.384Z,98992.00
2023-05-08T02:28:06.726Z,98995.72
2023-05-08T02:30:33.064Z,98993.28
2023-05-08T02:33:00.830Z,98996.78
2023-05-08T02:35:27.331Z,98989.59
2023-05-08T02:37:53.910Z,98988.78
2023-05-08T02:40:20.697Z,98995.94
2023-05-08T02:42:47.110Z,98991.44
2023-05-08T02:45:13.441Z,98987.41
2023-05-08T02:47:51.738Z,98994.13
2023-05-08T02:50:19.251Z,98990.13
2023-05-08T02:52:46.356Z,98982.22
2023-05-08T02:55:18.670Z,98980.69
2023-05-08T02:57:49.004Z,98980.69
2023-05-08T03:00:16.337Z,98979.63
2023-05-08T03:02:43.918Z,98979.88
2023-05-08T03:05:15.262Z,98976.44
2023-05-08T03:07:41.843Z,98980.94
2023-05-08T03:10:10.633Z,98975.84
2023-05-08T03:12:39.437Z,98966.25
2023-05-08T03:15:07.745Z,98974.72
2023-05-08T03:17:34.088Z,98971.81
2023-05-08T03:20:02.003Z,98981.09
2023-05-08T03:22:28.650Z,98975.78
2023-05-08T03:24:55.012Z,98978.44
2023-05-08T03:27:21.438Z,98980.53
2023-05-08T03:29:47.809Z,98980.78
2023-05-08T03:32:14.132Z,98979.97
2023-05-08T03:34:40.570Z,98978.13
2023-05-08T03:37:06.880Z,98977.56
2023-05-08T03:39:33.229Z,98979.16
2023-05-08T03:41:59.535Z,98981.03
2023-05-08T03:44:25.915Z,98977.81
2023-05-08T03:46:52.757Z,98971.91
2023-05-08T03:49:19.270Z,98974.56
2023-05-08T03:51:45.612Z,98970.03
2023-05-08T03:54:11.930Z,98972.47
2023-05-08T03:56:38.256Z,98977.81
2023-05-08T03:59:08.973Z,98975.69
2023-05-08T04:01:41.881Z,98973.53
2023-05-08T04:04:29.967Z,98962.63
2023-05-08T04:07:22.737Z,98970.38
2023-05-08T04:09:59.727Z,98973.84
2023-05-08T04:12:32.302Z,98968.84
2023-05-08T04:15:01.503Z,98966.72
2023-05-08T04:17:44.200Z,98977.47
2023-05-08T04:20:12.235Z,98963.91
2023-05-08T04:22:38.643Z,98967.38
2023-05-08T04:25:05.483Z,98968.44
2023-05-08T04:27:31.819Z,98968.19
2023-05-08T04:29:58.164Z,98963.13
2023-05-08T04:32:24.574Z,98967.38
2023-05-08T04:34:50.902Z,98967.84
2023-05-08T04:37:26.787Z,98979.31
2023-05-08T04:39:53.215Z,98983.84
2023-05-08T04:42:19.682Z,98978.75
2023-05-08T04:44:47.444Z,98983.84
2023-05-08T04:47:14.117Z,98977.47
2023-05-08T04:49:40.646Z,98977.47
2023-05-08T04:52:07.706Z,98984.41
2023-05-08T04:54:34.151Z,98980.69
2023-05-08T04:57:00.703Z,98978.28
2023-05-08T04:59:27.037Z,98983.34
2023-05-08T05:01:53.506Z,98982.56
2023-05-08T05:04:19.876Z,98986.03
2023-05-08T05:06:46.202Z,98986.03
2023-05-08T05:09:12.537Z,98988.69
2023-05-08T05:11:38.856Z,98979.88
2023-05-08T05:14:06.233Z,98978.50
2023-05-08T05:16:32.722Z,98976.91
2023-05-08T05:18:59.192Z,98982.22
2023-05-08T05:21:26.011Z,98983.28
2023-05-08T05:23:52.327Z,98979.81
2023-05-08T05:26:18.711Z,98981.44
2023-05-08T05:28:45.029Z,98989.66
2023-05-08T05:31:11.447Z,98991.28
2023-05-08T05:33:37.889Z,98992.31
2023-05-08T05:36:04.232Z,98992.88
2023-05-08T05:38:30.549Z,98992.72
2023-05-08T05:40:57.183Z,98992.47
2023-05-08T05:43:23.496Z,98995.47
2023-05-08T05:45:49.815Z,98997.94
2023-05-08T05:48:16.480Z,99003.84
2023-05-08T05:50:43.020Z,99009.16
2023-05-08T05:53:09.902Z,99010.00
2023-05-08T05:55:36.225Z,99006.28
2023-05-08T05:58:02.597Z,99011.81
2023-05-08T06:00:30.562Z,99014.75
2023-05-08T06:02:57.572Z,99019.75
2023-05-08T06:05:24.060Z,99021.53
2023-05-08T06:07:50.479Z,99014.66
2023-05-08T06:10:16.800Z,99016.81
2023-05-08T06:12:43.137Z,99021.34
2023-05-08T06:15:09.924Z,99028.22
2023-05-08T06:17:36.404Z,99026.84
2023-05-08T06:20:03.083Z,99022.16
2023-05-08T06:22:30.019Z,99023.88
2023-05-08T06:24:57.275Z,99024.19
2023-05-08T06:27:23.723Z,99028.22
2023-05-08T06:29:52.860Z,99027.22
2023-05-08T06:32:19.507Z,99025.69
2023-05-08T06:34:45.947Z,99018.56
2023-05-08T06:37:12.329Z,99020.00
2023-05-08T06:39:38.691Z,99014.19
2023-05-08T06:42:08.161Z,99019.13
2023-05-08T06:44:35.064Z,99017.34
2023-05-08T06:47:01.584Z,99024.63
2023-05-08T06:49:27.928Z,99030.00
2023-05-08T06:51:55.920Z,99025.47
2023-05-08T06:54:24.188Z,99032.97
2023-05-08T06:56:50.579Z,99023.84
2023-05-08T06:59:17.064Z,99033.38
2023-05-08T07:01:43.538Z,99033.69
2023-05-08T07:04:10.149Z,99028.13
2023-05-08T07:06:36.558Z,99029.81
2023-05-08T07:09:02.936Z,99030.69
2023-05-08T07:11:29.271Z,99025.66
2023-05-08T07:13:55.822Z,99029.97
2023-05-08T07:16:22.236Z,99025.19
2023-05-08T07:18:48.650Z,99026.25
2023-05-08T07:21:15.968Z,99033.22
2023-05-08T07:26:08.530Z,99025.22
2023-05-08T07:28:34.868Z,99034.34
2023-05-08T07:31:03.962Z,99032.75
2023-05-08T07:33:30.328Z,99032.25
2023-05-08T07:35:56.642Z,99032.00
2023-05-08T07:38:22.971Z,99029.88
2023-05-08T07:40:51.465Z,99024.81
2023-05-08T07:43:17.785Z,99029.66
2023-05-08T07:45:44.095Z,99028.56
2023-05-08T07:48:11.752Z,99030.25
2023-05-08T07:50:38.215Z,99036.63
2023-05-08T07:53:04.569Z,99030.47
2023-05-08T07:55:30.974Z,99029.47
2023-05-08T07:57:57.480Z,99032.19
2023-05-08T08:00:23.967Z,99031.31
2023-05-08T08:02:50.492Z,99032.84
2023-05-08T08:05:17.138Z,99024.50
2023-05-08T08:07:43.632Z,99032.19
2023-05-08T08:10:09.968Z,99031.38
2023-05-08T08:12:36.306Z,99032.50
2023-05-08T08:15:02.652Z,99028.75
2023-05-08T08:17:29.246Z,99022.69
2023-05-08T08:19:55.780Z,99033.94
2023-05-08T08:22:22.104Z,99032.59
2023-05-08T08:24:48.443Z,99034.75
2023-05-08T08:27:14.801Z,99031.28
2023-05-08T08:29:41.184Z,99025.84
2023-05-08T08:32:07.576Z,99022.97
2023-05-08T08:34:33.893Z,99021.41
2023-05-08T08:37:00.232Z,99024.38
2023-05-08T08:39:26.569Z,99026.25
2023-05-08T08:41:52.966Z,99017.44
2023-05-08T08:44:19.310Z,99016.13
2023-05-08T08:46:49.741Z,99008.13
2023-05-08T08:49:17.775Z,99011.25
2023-05-08T08:51:50.845Z,99020.59
2023-05-08T08:54:20.305Z,99013.97
2023-05-08T08:56:46.865Z,99014.22
2023-05-08T08:59:13.335Z,99013.50
2023-05-08T09:01:39.847Z,99007.38
2023-05-08T09:04:06.482Z,99000.13
2023-05-08T09:06:35.903Z,99004.72
2023-05-08T09:09:02.211Z,99004.97
2023-05-08T09:11:30.329Z,99006.84
2023-05-08T09:13:56.639Z,99010.59
2023-05-08T09:16:23.562Z,99012.81
2023-05-08T09:18:49.906Z,99009.16
2023-05-08T09:21:16.391Z,99000.88
2023-05-08T09:23:55.087Z,99004.47
2023-05-08T09:26:32.525Z,99014.06
2023-05-08T09:29:11.868Z,99011.19
2023-05-08T09:31:41.437Z,99007.50
2023-05-08T09:34:11.385Z,99008.63
2023-05-08T09:36:39.944Z,99011.28
2023-05-08T09:39:10.444Z,99005.13
2023-05-08T09:41:36.857Z,99006.03
2023-05-08T09:44:03.958Z,98991.66
2023-05-08T09:46:30.359Z,98994.91
2023-05-08T09:48:57.301Z,98994.13
2023-05-08T09:51:23.867Z,98998.53
2023-05-08T09:53:52.120Z,99000.97
2023-05-08T09:56:30.452Z,98998.88
2023-05-08T09:58:58.505Z,99000.03
2023-05-08T10:01:28.737Z,99006.16
2023-05-08T10:03:55.166Z,98995.06
2023-05-08T10:06:21.605Z,98996.69
2023-05-08T10:08:48.393Z,98985.03
2023-05-08T10:11:16.373Z,98990.41
2023-05-08T10:13:43.377Z,98991.50
2023-05-08T10:16:14.470Z,98987.25
2023-05-08T10:18:40.818Z,98995.44
2023-05-08T10:21:07.951Z,98986.63
2023-05-08T10:23:34.260Z,98995.78
2023-05-08T10:26:03.493Z,98987.75
2023-05-08T10:28:33.482Z,98984.63
2023-05-08T10:31:00.385Z,98981.66
2023-05-08T10:33:30.963Z,98980.31
2023-05-08T10:35:58.049Z,98983.00
2023-05-08T10:38:24.442Z,98991.31
2023-05-08T10:40:52.910Z,98985.97
2023-05-08T10:43:19.316Z,98985.66
2023-05-08T10:45:45.662Z,98990.75
2023-05-08T10:48:18.055Z,98985.09
2023-05-08T10:50:48.232Z,98982.75
2023-05-08T10:53:23.354Z,98980.88
2023-05-08T10:55:50.380Z,98981.34
2023-05-08T10:58:40.375Z,98974.13
2023-05-08T11:01:07.942Z,98977.41
2023-05-08T11:03:49.491Z,98978.22
2023-05-08T11:06:16.188Z,98979.03
2023-05-08T11:08:49.466Z,98972.84
2023-05-08T11:11:15.743Z,98981.38
2023-05-08T11:13:42.738Z,98976.03
2023-05-08T11:16:12.322Z,98971.25
2023-05-08T11:18:48.964Z,98965.06
2023-05-08T11:21:16.781Z,98961.59
2023-05-08T11:23:43.104Z,98970.16
2023-05-08T11:26:13.071Z,98971.78
2023-05-08T11:28:40.092Z,98977.63
2023-05-08T11:31:07.152Z,98966.41
2023-05-08T11:33:41.006Z,98966.94
2023-05-08T11:36:07.255Z,98975.25
2023-05-08T11:38:35.677Z,98977.63
2023-05-08T11:41:12.101Z,98964.28
2023-05-08T11:43:38.405Z,98972.31
2023-05-08T11:46:04.660Z,98966.41
2023-05-08T11:48:34.014Z,98964.81
2023-05-08T11:51:00.431Z,98964.56
2023-05-08T11:53:26.922Z,98965.91
2023-05-08T11:55:53.320Z,98968.59
2023-05-08T11:58:20.034Z,98971.00
2023-05-08T12:00:46.758Z,98971.25
2023-05-08T12:03:13.720Z,98968.59
2023-05-08T12:05:40.649Z,98975.53
2023-05-08T12:08:07.291Z,98977.91
2023-05-08T12:10:39.021Z,98982.72
2023-05-08T12:13:14.950Z,98974.13
2023-05-08T12:15:41.306Z,98975.50
2023-05-08T12:18:07.679Z,98969.34
2023-05-08T12:20:34.053Z,98973.59
2023-05-08T12:23:01.969Z,98969.06
2023-05-08T12:25:28.294Z,98970.66
2023-05-08T12:27:54.631Z,98969.56
2023-05-08T12:30:20.992Z,98972.53
2023-05-08T12:32:47.386Z,98972.00
2023-05-08T12:35:13.870Z,98971.72
2023-05-08T12:37:40.237Z,98975.47
2023-05-08T12:40:06.821Z,98984.81
2023-05-08T12:42:43.075Z,98973.31
2023-05-08T12:45:09.468Z,98979.19
2023-05-08T12:47:35.836Z,98979.44
2023-05-08T12:50:02.235Z,98981.28
2023-05-08T12:52:28.961Z,98972.16
2023-05-08T12:54:55.374Z,98969.28
2023-05-08T12:57:22.674Z,98972.50
2023-05-08T12:59:49.049Z,98966.88
2023-05-08T13:02:19.490Z,98971.91
2023-05-08T13:04:46.013Z,98961.22
2023-05-08T13:07:12.415Z,98955.06
2023-05-08T13:09:39.025Z,98950.00
2023-05-08T13:12:06.698Z,98952.41
2023-05-08T13:14:33.039Z,98958.81
2023-05-08T13:16:59.921Z,98958.47
2023-05-08T13:19:27.502Z,98948.34
2023-05-08T13:21:53.825Z,98942.19
2023-05-08T13:24:20.156Z,98945.91
2023-05-08T13:26:46.796Z,98944.03
2023-05-08T13:29:13.228Z,98942.19
2023-05-08T13:31:39.605Z,98942.19
2023-05-08T13:34:05.989Z,98936.84
2023-05-08T13:36:32.305Z,98931.50
2023-05-08T13:38:58.622Z,98930.94
2023-05-08T13:41:24.947Z,98931.44
2023-05-08T13:43:51.269Z,98939.72
2023-05-08T13:46:17.761Z,98934.66
2023-05-08T13:48:44.181Z,98925.56
2023-05-08T13:51:10.532Z,98929.59
2023-05-08T13:53:36.855Z,98928.78
2023-05-08T13:56:03.184Z,98927.16
2023-05-08T13:58:29.493Z,98926.06
2023-05-08T14:00:55.898Z,98927.69
2023-05-08T14:03:22.400Z,98928.50
2023-05-08T14:05:48.802Z,98921.78
2023-05-08T14:08:15.111Z,98922.56
2023-05-08T14:10:41.484Z,98922.28
2023-05-08T14:13:08.310Z,98922.28
2023-05-08T14:15:37.264Z,98920.47
2023-05-08T14:18:03.899Z,98919.88
2023-05-08T14:20:30.590Z,98915.34
2023-05-08T14:23:00.031Z,98916.72
2023-05-08T14:25:26.673Z,98912.13
2023-05-08T14:27:53.019Z,98908.88
2023-05-08T14:30:19.355Z,98903.81
2023-05-08T14:32:45.785Z,98904.53
2023-05-08T14:35:14.416Z,98897.84
2023-05-08T14:37:41.439Z,98895.19
2023-05-08T14:40:08.003Z,98889.03
2023-05-08T14:42:34.372Z,98899.19
2023-05-08T14:45:00.862Z,98894.38
2023-05-08T14:47:27.381Z,98893.09
2023-05-08T14:52:20.250Z,98889.84
2023-05-08T14:54:52.876Z,98885.84
2023-05-08T14:57:19.756Z,98887.44
2023-05-08T15:02:16.897Z,98885.28
2023-05-08T15:04:44.129Z,98892.25
2023-05-08T15:07:10.512Z,98898.63
2023-05-08T15:09:36.849Z,98896.97
2023-05-08T15:12:03.299Z,98893.19
2023-05-08T15:14:29.751Z,98893.50
2023-05-08T15:16:56.096Z,98893.50
2023-05-08T15:19:22.464Z,98898.59
2023-05-08T15:21:48.772Z,98902.84
2023-05-08T15:24:15.101Z,98892.16
2023-05-08T15:26:41.408Z,98888.66
2023-05-08T15:29:07.795Z,98892.97
2023-05-08T15:31:34.204Z,98888.66
2023-05-08T15:34:00.620Z,98895.88
2023-05-08T15:36:28.566Z,98894.53
2023-05-08T15:38:54.964Z,98882.75
2023-05-08T15:41:21.760Z,98886.19
2023-05-08T15:43:48.089Z,98898.19
2023-05-08T15:46:14.485Z,98895.03
2023-05-08T15:48:40.834Z,98896.34
2023-05-08T15:51:07.182Z,98884.84
2023-05-08T15:53:34.028Z,98894.72
2023-05-08T15:56:00.345Z,98891.81
2023-05-08T15:58:27.599Z,98890.19
2023-05-08T16:00:54.124Z,98884.81
2023-05-08T16:03:20.572Z,98882.97
2023-05-08T16:05:47.016Z,98890.91
2023-05-08T16:08:13.980Z,98886.63
2023-05-08T16:10:40.819Z,98885.84
2023-05-08T16:13:07.226Z,98900.78
2023-05-08T16:15:33.622Z,98897.88
2023-05-08T16:17:59.990Z,98905.31
2023-05-08T16:20:26.360Z,98903.72
2023-05-08T16:22:53.982Z,98899.63
2023-05-08T16:25:20.365Z,98894.31
2023-05-08T16:27:46.685Z,98894.03
2023-05-08T16:30:13.145Z,98900.41
2023-05-08T16:32:42.747Z,98897.72
2023-05-08T16:35:09.258Z,98901.47
2023-05-08T16:37:37.293Z,98894.53
2023-05-08T16:40:04.014Z,98896.34
2023-05-08T16:42:30.338Z,98896.66
2023-05-08T16:44:56.653Z,98892.91
2023-05-08T16:47:23.005Z,98885.97
2023-05-08T16:49:49.326Z,98882.25
2023-05-08T16:52:15.667Z,98883.03
2023-05-08T16:54:42.006Z,98884.91
2023-05-08T16:57:08.340Z,98887.59
2023-05-08T16:59:34.658Z,98887.00
2023-05-08T17:02:01.057Z,98886.47
2023-05-08T17:04:28.850Z,98881.94
2023-05-08T17:06:57.285Z,98890.19
2023-05-08T17:09:25.251Z,98887.28
2023-05-08T17:11:51.661Z,98879.75
2023-05-08T17:14:18.485Z,98888.03
2023-05-08T17:16:44.879Z,98881.88
2023-05-08T17:19:11.237Z,98881.84
2023-05-08T17:21:37.549Z,98880.25
2023-05-08T17:24:03.957Z,98881.84
2023-05-08T17:26:31.713Z,98877.56
2023-05-08T17:28:58.026Z,98885.31
2023-05-08T17:31:24.363Z,98879.13
2023-05-08T17:33:50.830Z,98885.25
2023-05-08T17:36:17.161Z,98880.72
2023-05-08T17:38:45.923Z,98880.47
2023-05-08T17:41:12.520Z,98884.78
2023-05-08T17:43:39.421Z,98883.66
2023-05-08T17:46:06.167Z,98883.09
2023-05-08T17:48:32.689Z,98886.81
2023-05-08T17:50:59.297Z,98892.16
2023-05-08T17:53:25.708Z,98896.13
2023-05-08T17:55:52.074Z,98893.66
2023-05-08T17:58:18.414Z,98893.91
2023-05-08T18:00:44.747Z,98888.88
2023-05-08T18:03:12.123Z,98887.84
2023-05-08T18:05:38.699Z,98889.44
2023-05-08T18:08:05.071Z,98889.69
2023-05-08T18:10:32.320Z,98895.25
2023-05-08T18:12:58.683Z,98899.56
2023-05-08T18:15:24.999Z,98900.03
2023-05-08T18:17:53.451Z,98901.38
2023-05-08T18:20:23.475Z,98904.88
2023-05-08T18:22:50.178Z,98900.53
2023-05-08T18:25:16.491Z,98898.72
2023-05-08T18:27:43.392Z,98907.28
2023-05-08T18:30:09.816Z,98909.69
2023-05-08T18:32:36.735Z,98910.50
2023-05-08T18:35:03.154Z,98908.09
2023-05-08T18:37:29.498Z,98912.94
2023-05-08T18:39:55.906Z,98902.75
2023-05-08T18:42:22.249Z,98913.44
2023-05-08T18:44:48.619Z,98908.91
2023-05-08T18:47:14.993Z,98906.50
2023-05-08T18:49:41.368Z,98907.78
2023-05-08T18:52:07.722Z,98912.88
2023-05-08T18:54:34.051Z,98912.06
2023-05-08T18:57:00.363Z,98915.56
2023-05-08T18:59:26.704Z,98908.59
2023-05-08T19:01:53.060Z,98912.31
2023-05-08T19:04:19.442Z,98914.19
2023-05-08T19:06:45.898Z,98922.44
2023-05-08T19:09:12.816Z,98923.72
2023-05-08T19:11:39.138Z,98920.78
2023-05-08T19:14:05.527Z,98922.66
2023-05-08T19:16:32.181Z,98929.06
2023-05-08T19:18:58.547Z,98931.19
2023-05-08T19:21:24.955Z,98923.97
2023-05-08T19:23:51.359Z,98923.66
2023-05-08T19:26:18.560Z,98924.78
2023-05-08T19:28:44.887Z,98924.59
2023-05-08T19:31:11.267Z,98927.81
2023-05-08T19:33:37.628Z,98927.00
2023-05-08T19:36:03.953Z,98926.44
2023-05-08T19:38:30.290Z,98928.88
2023-05-08T19:40:57.939Z,98921.69
2023-05-08T19:43:25.235Z,98927.25
2023-05-08T19:45:51.596Z,98921.69
2023-05-08T19:48:19.989Z,98915.56
2023-05-08T19:50:46.452Z,98918.44
2023-05-08T19:53:12.780Z,98912.31
2023-05-08T19:55:39.194Z,98915.56
2023-05-08T19:58:05.519Z,98917.66
2023-05-08T20:00:31.901Z,98908.84
2023-05-08T20:02:58.289Z,98910.72
2023-05-08T20:05:24.644Z,98913.38
2023-05-08T20:07:50.971Z,98914.44
2023-05-08T20:10:17.295Z,98913.38
2023-05-08T20:12:43.750Z,98914.44
2023-05-08T20:15:10.442Z,98918.97
2023-05-08T20:17:36.818Z,98914.91
2023-05-08T20:20:03.462Z,98919.19
2023-05-08T20:22:29.806Z,98919.72
2023-05-08T20:24:56.183Z,98919.94
2023-05-08T20:27:22.531Z,98926.28
2023-05-08T20:29:48.847Z,98918.03
2023-05-08T20:32:16.404Z,98919.88
2023-05-08T20:34:44.393Z,98919.66
2023-05-08T20:37:10.718Z,98915.94
2023-05-08T20:39:37.036Z,98921.81
2023-05-08T20:42:03.354Z,98914.88
2023-05-08T20:44:29.734Z,98912.19
2023-05-08T20:46:56.105Z,98909.00
2023-05-08T20:49:22.425Z,98907.34
2023-05-08T20:51:48.797Z,98904.69
2023-05-08T20:54:15.265Z,98905.75
2023-05-08T20:56:41.605Z,98908.91
2023-05-08T20:59:08.267Z,98901.97
2023-05-08T21:01:34.620Z,98893.50
2023-05-08T21:04:00.966Z,98898.81
2023-05-08T21:06:27.519Z,98891.06
2023-05-08T21:08:53.925Z,98892.63
2023-05-08T21:11:21.040Z,98887.84
2023-05-08T21:13:47.392Z,98890.50
2023-05-08T21:16:13.777Z,98878.72
2023-05-08T21:18:40.173Z,98884.38
2023-05-08T21:21:15.834Z,98888.91
2023-05-08T21:23:42.148Z,98881.16
2023-05-08T21:26:08.480Z,98877.44
2023-05-08T21:28:34.957Z,98877.38
2023-05-08T21:31:01.304Z,98871.25
2023-05-08T21:33:27.663Z,98878.94
2023-05-08T21:35:53.971Z,98874.66
2023-05-08T21:38:20.364Z,98873.59
2023-05-08T21:40:46.674Z,98873.03
2023-05-08T21:43:13.093Z,98870.63
2023-05-08T21:45:39.436Z,98874.88
2023-05-08T21:48:05.901Z,98868.50
2023-05-08T21:50:32.287Z,98865.56
2023-05-08T21:52:58.653Z,98866.81
2023-05-08T21:55:25.027Z,98861.47
2023-05-08T21:57:51.348Z,98857.69
2023-05-08T22:00:17.793Z,98858.00
2023-05-08T22:02:44.151Z,98861.91
2023-05-08T22:05:10.550Z,98856.91
2023-05-08T22:07:36.928Z,98863.03
2023-05-08T22:10:03.953Z,98866.00
2023-05-08T22:12:30.383Z,98863.34
2023-05-08T22:14:56.705Z,98858.81
2023-05-08T22:17:23.047Z,98858.81
2023-05-08T22:19:49.401Z,98854.28
2023-05-08T22:22:15.717Z,98850.81
2023-05-08T22:24:42.055Z,98843.63
2023-05-08T22:27:08.363Z,98846.63
2023-05-08T22:29:34.698Z,98839.72
2023-05-08T22:32:01.138Z,98836.25
2023-05-08T22:34:27.497Z,98833.06
2023-05-08T22:36:53.819Z,98834.13
2023-05-08T22:39:20.128Z,98834.13
2023-05-08T22:41:46.596Z,98839.44
2023-05-08T22:44:12.964Z,98828.00
2023-05-08T22:46:39.411Z,98831.47
2023-05-08T22:49:06.027Z,98816.53
2023-05-08T22:51:32.640Z,98813.06
2023-05-08T22:53:58.976Z,98805.06
2023-05-08T22:56:25.601Z,98806.84
2023-05-08T22:58:54.548Z,98807.34
2023-05-08T23:01:21.540Z,98802.00
2023-05-08T23:03:47.993Z,98803.28
2023-05-08T23:06:14.311Z,98791.84
2023-05-08T23:08:40.625Z,98800.91
2023-05-08T23:11:06.937Z,98793.47
2023-05-08T23:13:33.244Z,98788.16
2023-05-08T23:15:59.578Z,98790.28
2023-05-08T23:18:25.950Z,98786.50
2023-05-08T23:20:52.282Z,98791.03
2023-05-08T23:23:18.594Z,98792.09
2023-05-08T23:25:44.908Z,98789.44
2023-05-08T23:28:11.235Z,98788.63
2023-05-08T23:30:37.616Z,98777.97
2023-05-08T23:33:04.350Z,98775.91
2023-05-08T23:35:30.726Z,98775.47
2023-05-08T23:37:57.057Z,98778.44
2023-05-08T23:40:23.378Z,98774.53
2023-05-08T23:42:49.708Z,98776.75
2023-05-08T23:45:16.446Z,98771.97
2023-05-08T23:47:43.198Z,98774.63
2023-05-08T23:50:09.781Z,98773.59
2023-05-08T23:52:36.106Z,98765.63
2023-05-08T23:55:02.433Z,98763.97
2023-05-08T23:57:28.756Z,98758.09
2023-05-08T23:59:55.076Z,98756.75
